sensor_id;sensor_type;location;lat;lon;timestamp;P1;durP1;ratioP1;P2;durP2;ratioP2
6852;SDS011;3465;42.144;24.722;2024-02-23T00:00:50;17.92;;;10.60;;
6852;SDS011;3465;42.144;24.722;2024-02-23T00:03:16;14.40;;;8.52;;
6852;SDS011;3465;42.144;24.722;2024-02-23T00:05:41;17.85;;;11.10;;
6852;SDS011;3465;42.144;24.722;2024-02-23T00:08:07;19.23;;;12.85;;
6852;SDS011;3465;42.144;24.722;2024-02-23T00:10:34;19.00;;;9.80;;
6852;SDS011;3465;42.144;24.722;2024-02-23T00:13:00;19.63;;;10.77;;
6852;SDS011;3465;42.144;24.722;2024-02-23T00:15:27;13.35;;;8.23;;
6852;SDS011;3465;42.144;24.722;2024-02-23T00:17:52;14.48;;;9.40;;
6852;SDS011;3465;42.144;24.722;2024-02-23T00:20:18;15.52;;;8.98;;
6852;SDS011;3465;42.144;24.722;2024-02-23T00:22:43;17.35;;;10.00;;
6852;SDS011;3465;42.144;24.722;2024-02-23T00:25:09;15.30;;;9.68;;
6852;SDS011;3465;42.144;24.722;2024-02-23T00:27:34;19.38;;;10.98;;
6852;SDS011;3465;42.144;24.722;2024-02-23T00:30:00;18.42;;;9.90;;
6852;SDS011;3465;42.144;24.722;2024-02-23T00:32:25;17.85;;;10.43;;
6852;SDS011;3465;42.144;24.722;2024-02-23T00:34:51;19.98;;;11.48;;
6852;SDS011;3465;42.144;24.722;2024-02-23T00:37:20;17.92;;;10.98;;
6852;SDS011;3465;42.144;24.722;2024-02-23T00:39:45;18.77;;;10.95;;
6852;SDS011;3465;42.144;24.722;2024-02-23T00:42:11;22.35;;;10.88;;
6852;SDS011;3465;42.144;24.722;2024-02-23T00:44:36;20.13;;;10.43;;
6852;SDS011;3465;42.144;24.722;2024-02-23T00:47:02;20.55;;;11.20;;
6852;SDS011;3465;42.144;24.722;2024-02-23T00:49:29;21.38;;;12.80;;
6852;SDS011;3465;42.144;24.722;2024-02-23T00:51:55;22.80;;;13.23;;
6852;SDS011;3465;42.144;24.722;2024-02-23T00:54:20;19.60;;;12.25;;
6852;SDS011;3465;42.144;24.722;2024-02-23T00:56:46;21.88;;;12.57;;
6852;SDS011;3465;42.144;24.722;2024-02-23T00:59:12;24.20;;;13.23;;
6852;SDS011;3465;42.144;24.722;2024-02-23T01:01:37;28.23;;;13.25;;
6852;SDS011;3465;42.144;24.722;2024-02-23T01:04:03;24.55;;;11.95;;
6852;SDS011;3465;42.144;24.722;2024-02-23T01:06:28;22.60;;;12.52;;
6852;SDS011;3465;42.144;24.722;2024-02-23T01:08:54;18.25;;;11.55;;
6852;SDS011;3465;42.144;24.722;2024-02-23T01:11:19;22.35;;;12.40;;
6852;SDS011;3465;42.144;24.722;2024-02-23T01:13:44;25.13;;;14.07;;
6852;SDS011;3465;42.144;24.722;2024-02-23T01:16:10;21.48;;;12.50;;
6852;SDS011;3465;42.144;24.722;2024-02-23T01:18:35;25.95;;;12.57;;
6852;SDS011;3465;42.144;24.722;2024-02-23T01:21:01;22.48;;;14.20;;
6852;SDS011;3465;42.144;24.722;2024-02-23T01:23:26;19.38;;;12.52;;
6852;SDS011;3465;42.144;24.722;2024-02-23T01:25:52;22.55;;;13.07;;
6852;SDS011;3465;42.144;24.722;2024-02-23T01:28:18;22.02;;;12.32;;
6852;SDS011;3465;42.144;24.722;2024-02-23T01:30:43;23.35;;;13.10;;
6852;SDS011;3465;42.144;24.722;2024-02-23T01:33:09;18.15;;;11.82;;
6852;SDS011;3465;42.144;24.722;2024-02-23T01:35:34;22.23;;;12.20;;
6852;SDS011;3465;42.144;24.722;2024-02-23T01:38:01;21.00;;;12.68;;
6852;SDS011;3465;42.144;24.722;2024-02-23T01:40:27;22.02;;;12.13;;
6852;SDS011;3465;42.144;24.722;2024-02-23T01:45:31;24.10;;;13.30;;
6852;SDS011;3465;42.144;24.722;2024-02-23T01:48:00;22.05;;;13.00;;
6852;SDS011;3465;42.144;24.722;2024-02-23T01:50:26;21.38;;;11.95;;
6852;SDS011;3465;42.144;24.722;2024-02-23T01:52:52;19.88;;;13.10;;
6852;SDS011;3465;42.144;24.722;2024-02-23T01:55:19;21.77;;;13.77;;
6852;SDS011;3465;42.144;24.722;2024-02-23T01:57:46;20.23;;;11.55;;
6852;SDS011;3465;42.144;24.722;2024-02-23T02:00:14;22.75;;;12.80;;
6852;SDS011;3465;42.144;24.722;2024-02-23T02:02:42;22.05;;;12.13;;
6852;SDS011;3465;42.144;24.722;2024-02-23T02:05:09;19.08;;;12.20;;
6852;SDS011;3465;42.144;24.722;2024-02-23T02:07:35;19.63;;;10.70;;
6852;SDS011;3465;42.144;24.722;2024-02-23T02:10:00;17.42;;;11.75;;
6852;SDS011;3465;42.144;24.722;2024-02-23T02:12:28;19.92;;;11.32;;
6852;SDS011;3465;42.144;24.722;2024-02-23T02:14:54;18.65;;;11.20;;
6852;SDS011;3465;42.144;24.722;2024-02-23T02:17:21;22.33;;;12.63;;
6852;SDS011;3465;42.144;24.722;2024-02-23T02:19:47;20.65;;;11.90;;
6852;SDS011;3465;42.144;24.722;2024-02-23T02:22:16;21.08;;;12.85;;
6852;SDS011;3465;42.144;24.722;2024-02-23T02:24:41;17.65;;;10.75;;
6852;SDS011;3465;42.144;24.722;2024-02-23T02:27:09;21.75;;;12.85;;
6852;SDS011;3465;42.144;24.722;2024-02-23T02:29:35;19.40;;;11.30;;
6852;SDS011;3465;42.144;24.722;2024-02-23T02:32:00;21.00;;;12.77;;
6852;SDS011;3465;42.144;24.722;2024-02-23T02:36:53;22.30;;;11.32;;
6852;SDS011;3465;42.144;24.722;2024-02-23T02:39:19;18.67;;;11.95;;
6852;SDS011;3465;42.144;24.722;2024-02-23T02:41:45;21.08;;;13.20;;
6852;SDS011;3465;42.144;24.722;2024-02-23T02:44:10;23.25;;;13.27;;
6852;SDS011;3465;42.144;24.722;2024-02-23T02:46:38;23.15;;;13.07;;
6852;SDS011;3465;42.144;24.722;2024-02-23T02:49:03;19.90;;;12.82;;
6852;SDS011;3465;42.144;24.722;2024-02-23T02:51:29;20.08;;;12.68;;
6852;SDS011;3465;42.144;24.722;2024-02-23T02:53:54;21.70;;;13.13;;
6852;SDS011;3465;42.144;24.722;2024-02-23T02:56:20;24.60;;;13.57;;
6852;SDS011;3465;42.144;24.722;2024-02-23T02:58:45;24.88;;;15.15;;
6852;SDS011;3465;42.144;24.722;2024-02-23T03:01:11;23.25;;;14.18;;
6852;SDS011;3465;42.144;24.722;2024-02-23T03:03:37;24.52;;;15.80;;
6852;SDS011;3465;42.144;24.722;2024-02-23T03:06:02;29.42;;;16.63;;
6852;SDS011;3465;42.144;24.722;2024-02-23T03:08:28;27.23;;;16.15;;
6852;SDS011;3465;42.144;24.722;2024-02-23T03:10:54;27.48;;;15.73;;
6852;SDS011;3465;42.144;24.722;2024-02-23T03:13:19;21.42;;;13.98;;
6852;SDS011;3465;42.144;24.722;2024-02-23T03:15:45;24.08;;;14.43;;
6852;SDS011;3465;42.144;24.722;2024-02-23T03:18:10;23.42;;;13.05;;
6852;SDS011;3465;42.144;24.722;2024-02-23T03:20:36;20.50;;;12.40;;
6852;SDS011;3465;42.144;24.722;2024-02-23T03:23:01;26.98;;;15.23;;
6852;SDS011;3465;42.144;24.722;2024-02-23T03:25:28;21.50;;;12.65;;
6852;SDS011;3465;42.144;24.722;2024-02-23T03:27:54;23.65;;;14.25;;
6852;SDS011;3465;42.144;24.722;2024-02-23T03:30:20;20.65;;;13.07;;
6852;SDS011;3465;42.144;24.722;2024-02-23T03:32:46;27.85;;;13.90;;
6852;SDS011;3465;42.144;24.722;2024-02-23T03:35:12;25.95;;;13.00;;
6852;SDS011;3465;42.144;24.722;2024-02-23T03:37:38;23.38;;;12.90;;
6852;SDS011;3465;42.144;24.722;2024-02-23T03:40:06;22.23;;;12.20;;
6852;SDS011;3465;42.144;24.722;2024-02-23T03:42:32;26.80;;;14.15;;
6852;SDS011;3465;42.144;24.722;2024-02-23T03:44:58;24.63;;;14.43;;
6852;SDS011;3465;42.144;24.722;2024-02-23T03:47:24;28.23;;;13.85;;
6852;SDS011;3465;42.144;24.722;2024-02-23T03:49:49;25.60;;;13.60;;
6852;SDS011;3465;42.144;24.722;2024-02-23T03:52:14;21.13;;;12.82;;
6852;SDS011;3465;42.144;24.722;2024-02-23T03:54:40;24.58;;;13.30;;
6852;SDS011;3465;42.144;24.722;2024-02-23T03:57:06;22.55;;;12.90;;
6852;SDS011;3465;42.144;24.722;2024-02-23T03:59:31;23.42;;;14.27;;
6852;SDS011;3465;42.144;24.722;2024-02-23T04:01:57;25.95;;;14.25;;
6852;SDS011;3465;42.144;24.722;2024-02-23T04:04:22;24.40;;;12.82;;
6852;SDS011;3465;42.144;24.722;2024-02-23T04:06:48;24.67;;;14.82;;
6852;SDS011;3465;42.144;24.722;2024-02-23T04:09:13;21.42;;;12.65;;
6852;SDS011;3465;42.144;24.722;2024-02-23T04:11:39;37.40;;;15.77;;
6852;SDS011;3465;42.144;24.722;2024-02-23T04:14:04;25.08;;;14.88;;
6852;SDS011;3465;42.144;24.722;2024-02-23T04:16:30;25.17;;;13.98;;
6852;SDS011;3465;42.144;24.722;2024-02-23T04:21:22;30.48;;;15.77;;
6852;SDS011;3465;42.144;24.722;2024-02-23T04:23:47;25.88;;;15.38;;
6852;SDS011;3465;42.144;24.722;2024-02-23T04:26:13;25.42;;;15.45;;
6852;SDS011;3465;42.144;24.722;2024-02-23T04:28:39;29.48;;;16.02;;
6852;SDS011;3465;42.144;24.722;2024-02-23T04:33:30;25.23;;;13.90;;
6852;SDS011;3465;42.144;24.722;2024-02-23T04:35:56;29.20;;;14.50;;
6852;SDS011;3465;42.144;24.722;2024-02-23T04:38:22;29.00;;;15.48;;
6852;SDS011;3465;42.144;24.722;2024-02-23T04:40:47;26.33;;;14.63;;
6852;SDS011;3465;42.144;24.722;2024-02-23T04:43:13;22.92;;;14.50;;
6852;SDS011;3465;42.144;24.722;2024-02-23T04:45:38;28.35;;;16.00;;
6852;SDS011;3465;42.144;24.722;2024-02-23T04:48:04;31.42;;;15.88;;
6852;SDS011;3465;42.144;24.722;2024-02-23T04:50:30;34.42;;;15.73;;
6852;SDS011;3465;42.144;24.722;2024-02-23T04:52:55;25.45;;;15.88;;
6852;SDS011;3465;42.144;24.722;2024-02-23T04:55:21;26.33;;;14.95;;
6852;SDS011;3465;42.144;24.722;2024-02-23T04:57:46;28.30;;;17.80;;
6852;SDS011;3465;42.144;24.722;2024-02-23T05:00:12;32.33;;;17.88;;
6852;SDS011;3465;42.144;24.722;2024-02-23T05:02:37;30.63;;;17.77;;
6852;SDS011;3465;42.144;24.722;2024-02-23T05:05:06;29.17;;;16.30;;
6852;SDS011;3465;42.144;24.722;2024-02-23T05:07:33;31.55;;;17.45;;
6852;SDS011;3465;42.144;24.722;2024-02-23T05:09:59;30.42;;;18.48;;
6852;SDS011;3465;42.144;24.722;2024-02-23T05:12:25;34.45;;;19.80;;
6852;SDS011;3465;42.144;24.722;2024-02-23T05:14:51;32.80;;;18.05;;
6852;SDS011;3465;42.144;24.722;2024-02-23T05:17:16;34.65;;;17.38;;
6852;SDS011;3465;42.144;24.722;2024-02-23T05:19:42;37.15;;;19.40;;
6852;SDS011;3465;42.144;24.722;2024-02-23T05:22:08;34.15;;;18.23;;
6852;SDS011;3465;42.144;24.722;2024-02-23T05:24:33;31.73;;;18.60;;
6852;SDS011;3465;42.144;24.722;2024-02-23T05:26:59;32.40;;;16.75;;
6852;SDS011;3465;42.144;24.722;2024-02-23T05:29:27;35.35;;;18.45;;
6852;SDS011;3465;42.144;24.722;2024-02-23T05:31:52;34.03;;;18.10;;
6852;SDS011;3465;42.144;24.722;2024-02-23T05:34:18;30.92;;;18.08;;
6852;SDS011;3465;42.144;24.722;2024-02-23T05:36:44;30.05;;;16.58;;
6852;SDS011;3465;42.144;24.722;2024-02-23T05:39:15;39.58;;;19.17;;
6852;SDS011;3465;42.144;24.722;2024-02-23T05:41:42;29.70;;;17.67;;
6852;SDS011;3465;42.144;24.722;2024-02-23T05:44:09;30.48;;;18.65;;
6852;SDS011;3465;42.144;24.722;2024-02-23T05:46:35;24.42;;;15.45;;
6852;SDS011;3465;42.144;24.722;2024-02-23T05:51:28;24.75;;;14.10;;
6852;SDS011;3465;42.144;24.722;2024-02-23T05:53:57;25.13;;;16.08;;
6852;SDS011;3465;42.144;24.722;2024-02-23T05:56:23;30.80;;;17.52;;
6852;SDS011;3465;42.144;24.722;2024-02-23T06:01:15;29.90;;;15.43;;
6852;SDS011;3465;42.144;24.722;2024-02-23T06:03:40;29.30;;;15.88;;
6852;SDS011;3465;42.144;24.722;2024-02-23T06:06:09;28.17;;;14.60;;
6852;SDS011;3465;42.144;24.722;2024-02-23T06:08:35;29.55;;;16.10;;
6852;SDS011;3465;42.144;24.722;2024-02-23T06:11:01;22.77;;;14.20;;
6852;SDS011;3465;42.144;24.722;2024-02-23T06:13:28;25.52;;;15.55;;
6852;SDS011;3465;42.144;24.722;2024-02-23T06:15:54;30.58;;;16.88;;
6852;SDS011;3465;42.144;24.722;2024-02-23T06:18:20;25.85;;;15.05;;
6852;SDS011;3465;42.144;24.722;2024-02-23T06:20:45;24.70;;;15.27;;
6852;SDS011;3465;42.144;24.722;2024-02-23T06:23:11;25.70;;;14.05;;
6852;SDS011;3465;42.144;24.722;2024-02-23T06:25:36;23.63;;;14.52;;
6852;SDS011;3465;42.144;24.722;2024-02-23T06:28:02;24.92;;;14.90;;
6852;SDS011;3465;42.144;24.722;2024-02-23T06:32:53;23.58;;;14.88;;
6852;SDS011;3465;42.144;24.722;2024-02-23T06:35:18;17.23;;;11.98;;
6852;SDS011;3465;42.144;24.722;2024-02-23T06:37:44;22.45;;;12.68;;
6852;SDS011;3465;42.144;24.722;2024-02-23T06:40:09;23.05;;;13.40;;
6852;SDS011;3465;42.144;24.722;2024-02-23T06:45:00;15.32;;;9.70;;
6852;SDS011;3465;42.144;24.722;2024-02-23T06:49:52;22.15;;;9.50;;
6852;SDS011;3465;42.144;24.722;2024-02-23T06:54:43;22.88;;;12.43;;
6852;SDS011;3465;42.144;24.722;2024-02-23T06:57:09;22.35;;;12.80;;
6852;SDS011;3465;42.144;24.722;2024-02-23T06:59:34;25.05;;;12.15;;
6852;SDS011;3465;42.144;24.722;2024-02-23T07:01:59;17.48;;;11.32;;
6852;SDS011;3465;42.144;24.722;2024-02-23T07:04:25;21.80;;;13.05;;
6852;SDS011;3465;42.144;24.722;2024-02-23T07:06:50;19.33;;;12.20;;
6852;SDS011;3465;42.144;24.722;2024-02-23T07:09:16;21.02;;;13.93;;
6852;SDS011;3465;42.144;24.722;2024-02-23T07:11:41;20.55;;;11.27;;
6852;SDS011;3465;42.144;24.722;2024-02-23T07:14:09;17.98;;;11.50;;
6852;SDS011;3465;42.144;24.722;2024-02-23T07:16:38;18.00;;;10.75;;
6852;SDS011;3465;42.144;24.722;2024-02-23T07:19:04;25.02;;;13.50;;
6852;SDS011;3465;42.144;24.722;2024-02-23T07:21:30;16.35;;;10.70;;
6852;SDS011;3465;42.144;24.722;2024-02-23T07:23:55;17.58;;;11.38;;
6852;SDS011;3465;42.144;24.722;2024-02-23T07:26:21;16.00;;;10.68;;
6852;SDS011;3465;42.144;24.722;2024-02-23T07:28:47;16.88;;;10.27;;
6852;SDS011;3465;42.144;24.722;2024-02-23T07:31:14;17.33;;;10.73;;
6852;SDS011;3465;42.144;24.722;2024-02-23T07:33:40;17.65;;;10.75;;
6852;SDS011;3465;42.144;24.722;2024-02-23T07:36:06;16.05;;;9.82;;
6852;SDS011;3465;42.144;24.722;2024-02-23T07:38:33;19.27;;;11.02;;
6852;SDS011;3465;42.144;24.722;2024-02-23T07:40:59;21.33;;;12.25;;
6852;SDS011;3465;42.144;24.722;2024-02-23T07:43:24;16.90;;;10.02;;
6852;SDS011;3465;42.144;24.722;2024-02-23T07:45:51;14.13;;;10.45;;
6852;SDS011;3465;42.144;24.722;2024-02-23T07:48:16;15.90;;;11.48;;
6852;SDS011;3465;42.144;24.722;2024-02-23T07:50:42;15.15;;;9.95;;
6852;SDS011;3465;42.144;24.722;2024-02-23T07:53:07;17.67;;;9.38;;
6852;SDS011;3465;42.144;24.722;2024-02-23T07:55:33;15.50;;;10.70;;
6852;SDS011;3465;42.144;24.722;2024-02-23T07:57:58;13.18;;;10.60;;
6852;SDS011;3465;42.144;24.722;2024-02-23T08:00:26;16.15;;;10.50;;
6852;SDS011;3465;42.144;24.722;2024-02-23T08:02:53;15.73;;;10.93;;
6852;SDS011;3465;42.144;24.722;2024-02-23T08:05:21;14.90;;;9.60;;
6852;SDS011;3465;42.144;24.722;2024-02-23T08:07:48;14.30;;;10.75;;
6852;SDS011;3465;42.144;24.722;2024-02-23T08:10:14;20.98;;;9.82;;
6852;SDS011;3465;42.144;24.722;2024-02-23T08:12:39;15.05;;;10.70;;
6852;SDS011;3465;42.144;24.722;2024-02-23T08:15:05;14.13;;;8.75;;
6852;SDS011;3465;42.144;24.722;2024-02-23T08:17:31;14.35;;;9.38;;
6852;SDS011;3465;42.144;24.722;2024-02-23T08:22:22;14.35;;;10.13;;
6852;SDS011;3465;42.144;24.722;2024-02-23T08:24:48;12.10;;;8.38;;
6852;SDS011;3465;42.144;24.722;2024-02-23T08:29:39;14.23;;;9.48;;
6852;SDS011;3465;42.144;24.722;2024-02-23T08:32:06;14.95;;;10.45;;
6852;SDS011;3465;42.144;24.722;2024-02-23T08:34:31;16.15;;;9.40;;
6852;SDS011;3465;42.144;24.722;2024-02-23T08:39:22;13.68;;;8.98;;
6852;SDS011;3465;42.144;24.722;2024-02-23T08:44:13;12.35;;;9.23;;
6852;SDS011;3465;42.144;24.722;2024-02-23T08:46:39;13.65;;;9.18;;
6852;SDS011;3465;42.144;24.722;2024-02-23T08:49:05;15.77;;;10.35;;
6852;SDS011;3465;42.144;24.722;2024-02-23T08:53:56;20.05;;;8.98;;
6852;SDS011;3465;42.144;24.722;2024-02-23T08:56:28;13.35;;;9.63;;
6852;SDS011;3465;42.144;24.722;2024-02-23T08:58:53;19.45;;;11.40;;
6852;SDS011;3465;42.144;24.722;2024-02-23T09:01:19;18.08;;;11.05;;
6852;SDS011;3465;42.144;24.722;2024-02-23T09:03:44;15.70;;;11.48;;
6852;SDS011;3465;42.144;24.722;2024-02-23T09:06:10;23.08;;;13.38;;
6852;SDS011;3465;42.144;24.722;2024-02-23T09:08:54;15.93;;;10.75;;
6852;SDS011;3465;42.144;24.722;2024-02-23T09:11:19;39.40;;;23.35;;
6852;SDS011;3465;42.144;24.722;2024-02-23T09:13:45;16.55;;;11.07;;
6852;SDS011;3465;42.144;24.722;2024-02-23T09:16:10;21.73;;;11.15;;
6852;SDS011;3465;42.144;24.722;2024-02-23T09:18:36;17.65;;;11.63;;
6852;SDS011;3465;42.144;24.722;2024-02-23T09:21:02;16.65;;;10.80;;
6852;SDS011;3465;42.144;24.722;2024-02-23T09:23:27;24.52;;;14.25;;
6852;SDS011;3465;42.144;24.722;2024-02-23T09:25:53;20.33;;;12.48;;
6852;SDS011;3465;42.144;24.722;2024-02-23T09:28:18;18.17;;;12.07;;
6852;SDS011;3465;42.144;24.722;2024-02-23T09:30:43;17.95;;;11.95;;
6852;SDS011;3465;42.144;24.722;2024-02-23T09:33:09;17.63;;;12.15;;
6852;SDS011;3465;42.144;24.722;2024-02-23T09:35:34;20.50;;;13.57;;
6852;SDS011;3465;42.144;24.722;2024-02-23T09:38:00;27.40;;;17.48;;
6852;SDS011;3465;42.144;24.722;2024-02-23T09:40:26;23.45;;;13.85;;
6852;SDS011;3465;42.144;24.722;2024-02-23T09:42:55;17.52;;;11.75;;
6852;SDS011;3465;42.144;24.722;2024-02-23T09:45:22;17.80;;;11.63;;
6852;SDS011;3465;42.144;24.722;2024-02-23T09:47:50;22.08;;;11.25;;
6852;SDS011;3465;42.144;24.722;2024-02-23T09:50:17;17.50;;;11.55;;
6852;SDS011;3465;42.144;24.722;2024-02-23T09:52:44;20.50;;;12.82;;
6852;SDS011;3465;42.144;24.722;2024-02-23T09:55:12;19.23;;;11.52;;
6852;SDS011;3465;42.144;24.722;2024-02-23T09:57:37;16.33;;;11.02;;
6852;SDS011;3465;42.144;24.722;2024-02-23T10:00:03;52.65;;;18.35;;
6852;SDS011;3465;42.144;24.722;2024-02-23T10:02:31;104.80;;;28.02;;
6852;SDS011;3465;42.144;24.722;2024-02-23T10:04:57;20.55;;;11.68;;
6852;SDS011;3465;42.144;24.722;2024-02-23T10:07:26;71.57;;;22.40;;
6852;SDS011;3465;42.144;24.722;2024-02-23T10:09:52;28.48;;;13.07;;
6852;SDS011;3465;42.144;24.722;2024-02-23T10:12:18;16.70;;;11.88;;
6852;SDS011;3465;42.144;24.722;2024-02-23T10:14:43;16.58;;;9.75;;
6852;SDS011;3465;42.144;24.722;2024-02-23T10:17:09;13.63;;;9.40;;
6852;SDS011;3465;42.144;24.722;2024-02-23T10:19:34;12.77;;;9.93;;
6852;SDS011;3465;42.144;24.722;2024-02-23T10:22:00;16.50;;;10.38;;
6852;SDS011;3465;42.144;24.722;2024-02-23T10:24:25;14.43;;;9.95;;
6852;SDS011;3465;42.144;24.722;2024-02-23T10:26:51;17.50;;;10.63;;
6852;SDS011;3465;42.144;24.722;2024-02-23T10:29:17;15.98;;;10.48;;
6852;SDS011;3465;42.144;24.722;2024-02-23T10:31:43;12.30;;;8.95;;
6852;SDS011;3465;42.144;24.722;2024-02-23T10:34:14;15.18;;;9.57;;
6852;SDS011;3465;42.144;24.722;2024-02-23T10:36:43;13.65;;;9.40;;
6852;SDS011;3465;42.144;24.722;2024-02-23T10:39:10;16.67;;;10.90;;
6852;SDS011;3465;42.144;24.722;2024-02-23T10:41:36;14.48;;;9.63;;
6852;SDS011;3465;42.144;24.722;2024-02-23T10:44:05;14.60;;;9.95;;
6852;SDS011;3465;42.144;24.722;2024-02-23T10:46:32;15.90;;;10.88;;
6852;SDS011;3465;42.144;24.722;2024-02-23T10:48:58;16.85;;;9.82;;
6852;SDS011;3465;42.144;24.722;2024-02-23T10:51:24;17.58;;;10.60;;
6852;SDS011;3465;42.144;24.722;2024-02-23T10:53:50;15.43;;;10.75;;
6852;SDS011;3465;42.144;24.722;2024-02-23T10:56:17;15.00;;;9.60;;
6852;SDS011;3465;42.144;24.722;2024-02-23T10:58:43;17.63;;;12.05;;
6852;SDS011;3465;42.144;24.722;2024-02-23T11:01:08;11.75;;;8.68;;
6852;SDS011;3465;42.144;24.722;2024-02-23T11:03:36;17.73;;;9.45;;
6852;SDS011;3465;42.144;24.722;2024-02-23T11:06:06;13.52;;;8.52;;
6852;SDS011;3465;42.144;24.722;2024-02-23T11:08:32;13.68;;;9.45;;
6852;SDS011;3465;42.144;24.722;2024-02-23T11:11:06;17.92;;;9.27;;
6852;SDS011;3465;42.144;24.722;2024-02-23T11:13:36;9.02;;;6.78;;
6852;SDS011;3465;42.144;24.722;2024-02-23T11:16:03;12.82;;;8.20;;
6852;SDS011;3465;42.144;24.722;2024-02-23T11:18:30;13.52;;;9.48;;
6852;SDS011;3465;42.144;24.722;2024-02-23T11:21:00;12.48;;;9.00;;
6852;SDS011;3465;42.144;24.722;2024-02-23T11:23:38;12.85;;;8.75;;
6852;SDS011;3465;42.144;24.722;2024-02-23T11:26:05;10.00;;;7.97;;
6852;SDS011;3465;42.144;24.722;2024-02-23T11:29:34;12.82;;;8.75;;
6852;SDS011;3465;42.144;24.722;2024-02-23T11:31:50;12.38;;;7.68;;
6852;SDS011;3465;42.144;24.722;2024-02-23T11:34:23;11.90;;;7.88;;
6852;SDS011;3465;42.144;24.722;2024-02-23T11:36:51;9.93;;;7.82;;
6852;SDS011;3465;42.144;24.722;2024-02-23T11:39:18;12.40;;;8.40;;
6852;SDS011;3465;42.144;24.722;2024-02-23T11:41:47;12.73;;;8.02;;
6852;SDS011;3465;42.144;24.722;2024-02-23T11:44:16;12.32;;;8.70;;
6852;SDS011;3465;42.144;24.722;2024-02-23T11:46:45;13.48;;;8.63;;
6852;SDS011;3465;42.144;24.722;2024-02-23T11:49:12;12.18;;;8.70;;
6852;SDS011;3465;42.144;24.722;2024-02-23T11:51:37;12.50;;;8.40;;
6852;SDS011;3465;42.144;24.722;2024-02-23T11:54:03;12.93;;;9.27;;
6852;SDS011;3465;42.144;24.722;2024-02-23T11:56:29;12.00;;;8.63;;
6852;SDS011;3465;42.144;24.722;2024-02-23T11:58:55;12.13;;;8.63;;
6852;SDS011;3465;42.144;24.722;2024-02-23T12:01:21;14.45;;;8.77;;
6852;SDS011;3465;42.144;24.722;2024-02-23T12:03:46;14.48;;;8.77;;
6852;SDS011;3465;42.144;24.722;2024-02-23T12:06:13;11.80;;;8.45;;
6852;SDS011;3465;42.144;24.722;2024-02-23T12:08:42;20.92;;;10.50;;
6852;SDS011;3465;42.144;24.722;2024-02-23T12:11:10;12.05;;;8.70;;
6852;SDS011;3465;42.144;24.722;2024-02-23T12:13:38;11.88;;;8.77;;
6852;SDS011;3465;42.144;24.722;2024-02-23T12:16:06;14.75;;;9.10;;
6852;SDS011;3465;42.144;24.722;2024-02-23T12:18:35;12.95;;;8.75;;
6852;SDS011;3465;42.144;24.722;2024-02-23T12:21:01;12.45;;;8.98;;
6852;SDS011;3465;42.144;24.722;2024-02-23T12:23:48;12.57;;;8.48;;
6852;SDS011;3465;42.144;24.722;2024-02-23T12:26:15;12.43;;;8.38;;
6852;SDS011;3465;42.144;24.722;2024-02-23T12:28:42;11.50;;;9.23;;
6852;SDS011;3465;42.144;24.722;2024-02-23T12:31:08;13.43;;;9.55;;
6852;SDS011;3465;42.144;24.722;2024-02-23T12:33:34;12.45;;;8.52;;
6852;SDS011;3465;42.144;24.722;2024-02-23T12:36:01;11.05;;;8.80;;
6852;SDS011;3465;42.144;24.722;2024-02-23T12:38:27;10.35;;;7.53;;
6852;SDS011;3465;42.144;24.722;2024-02-23T12:40:53;12.20;;;7.53;;
6852;SDS011;3465;42.144;24.722;2024-02-23T12:43:19;9.95;;;7.38;;
6852;SDS011;3465;42.144;24.722;2024-02-23T12:45:49;11.68;;;7.60;;
6852;SDS011;3465;42.144;24.722;2024-02-23T12:48:16;10.60;;;7.95;;
6852;SDS011;3465;42.144;24.722;2024-02-23T12:50:42;8.88;;;6.93;;
6852;SDS011;3465;42.144;24.722;2024-02-23T12:53:09;8.38;;;6.63;;
6852;SDS011;3465;42.144;24.722;2024-02-23T12:55:37;11.50;;;7.32;;
6852;SDS011;3465;42.144;24.722;2024-02-23T12:58:03;12.32;;;9.20;;
6852;SDS011;3465;42.144;24.722;2024-02-23T13:00:28;11.93;;;7.28;;
6852;SDS011;3465;42.144;24.722;2024-02-23T13:02:54;11.50;;;7.72;;
6852;SDS011;3465;42.144;24.722;2024-02-23T13:05:19;11.50;;;7.20;;
6852;SDS011;3465;42.144;24.722;2024-02-23T13:07:45;10.90;;;6.72;;
6852;SDS011;3465;42.144;24.722;2024-02-23T13:10:12;10.68;;;6.68;;
6852;SDS011;3465;42.144;24.722;2024-02-23T13:12:38;10.40;;;7.15;;
6852;SDS011;3465;42.144;24.722;2024-02-23T13:15:03;11.93;;;8.32;;
6852;SDS011;3465;42.144;24.722;2024-02-23T13:17:29;8.15;;;6.28;;
6852;SDS011;3465;42.144;24.722;2024-02-23T13:19:54;9.35;;;6.72;;
6852;SDS011;3465;42.144;24.722;2024-02-23T13:22:20;10.50;;;6.47;;
6852;SDS011;3465;42.144;24.722;2024-02-23T13:24:45;8.35;;;6.43;;
6852;SDS011;3465;42.144;24.722;2024-02-23T13:27:11;8.63;;;5.80;;
6852;SDS011;3465;42.144;24.722;2024-02-23T13:29:37;10.05;;;5.72;;
6852;SDS011;3465;42.144;24.722;2024-02-23T13:32:02;9.43;;;6.50;;
6852;SDS011;3465;42.144;24.722;2024-02-23T13:34:28;8.35;;;5.43;;
6852;SDS011;3465;42.144;24.722;2024-02-23T13:36:53;11.02;;;5.53;;
6852;SDS011;3465;42.144;24.722;2024-02-23T13:39:19;8.35;;;6.13;;
6852;SDS011;3465;42.144;24.722;2024-02-23T13:41:44;9.00;;;6.88;;
6852;SDS011;3465;42.144;24.722;2024-02-23T13:44:10;8.82;;;6.65;;
6852;SDS011;3465;42.144;24.722;2024-02-23T13:46:36;9.20;;;6.75;;
6852;SDS011;3465;42.144;24.722;2024-02-23T13:49:04;11.73;;;6.18;;
6852;SDS011;3465;42.144;24.722;2024-02-23T13:51:32;7.85;;;6.00;;
6852;SDS011;3465;42.144;24.722;2024-02-23T13:53:58;8.98;;;6.32;;
6852;SDS011;3465;42.144;24.722;2024-02-23T13:56:24;9.15;;;5.18;;
6852;SDS011;3465;42.144;24.722;2024-02-23T13:58:50;10.32;;;5.80;;
6852;SDS011;3465;42.144;24.722;2024-02-23T14:01:15;8.13;;;5.68;;
6852;SDS011;3465;42.144;24.722;2024-02-23T14:03:41;11.68;;;7.47;;
6852;SDS011;3465;42.144;24.722;2024-02-23T14:06:07;11.38;;;6.63;;
6852;SDS011;3465;42.144;24.722;2024-02-23T14:08:33;7.72;;;5.22;;
6852;SDS011;3465;42.144;24.722;2024-02-23T14:11:02;9.27;;;5.25;;
6852;SDS011;3465;42.144;24.722;2024-02-23T14:13:33;6.97;;;4.88;;
6852;SDS011;3465;42.144;24.722;2024-02-23T14:15:58;6.72;;;5.32;;
6852;SDS011;3465;42.144;24.722;2024-02-23T14:18:25;7.07;;;4.95;;
6852;SDS011;3465;42.144;24.722;2024-02-23T14:20:51;6.22;;;5.55;;
6852;SDS011;3465;42.144;24.722;2024-02-23T14:23:17;10.02;;;6.40;;
6852;SDS011;3465;42.144;24.722;2024-02-23T14:25:43;10.02;;;6.88;;
6852;SDS011;3465;42.144;24.722;2024-02-23T14:28:08;8.02;;;6.07;;
6852;SDS011;3465;42.144;24.722;2024-02-23T14:30:34;8.13;;;6.63;;
6852;SDS011;3465;42.144;24.722;2024-02-23T14:33:00;10.43;;;6.22;;
6852;SDS011;3465;42.144;24.722;2024-02-23T14:35:26;10.60;;;6.00;;
6852;SDS011;3465;42.144;24.722;2024-02-23T14:37:51;7.80;;;6.30;;
6852;SDS011;3465;42.144;24.722;2024-02-23T14:40:17;8.27;;;5.82;;
6852;SDS011;3465;42.144;24.722;2024-02-23T14:42:42;9.77;;;6.20;;
6852;SDS011;3465;42.144;24.722;2024-02-23T14:45:08;8.32;;;6.70;;
6852;SDS011;3465;42.144;24.722;2024-02-23T14:47:34;9.13;;;5.63;;
6852;SDS011;3465;42.144;24.722;2024-02-23T14:50:01;7.53;;;5.85;;
6852;SDS011;3465;42.144;24.722;2024-02-23T14:52:27;8.95;;;5.57;;
6852;SDS011;3465;42.144;24.722;2024-02-23T14:54:53;9.60;;;6.03;;
6852;SDS011;3465;42.144;24.722;2024-02-23T14:57:19;7.93;;;6.45;;
6852;SDS011;3465;42.144;24.722;2024-02-23T14:59:44;8.70;;;6.45;;
6852;SDS011;3465;42.144;24.722;2024-02-23T15:02:14;9.18;;;6.70;;
6852;SDS011;3465;42.144;24.722;2024-02-23T15:04:46;8.68;;;6.30;;
6852;SDS011;3465;42.144;24.722;2024-02-23T15:07:12;9.48;;;6.00;;
6852;SDS011;3465;42.144;24.722;2024-02-23T15:09:37;9.80;;;6.75;;
6852;SDS011;3465;42.144;24.722;2024-02-23T15:12:03;8.95;;;5.32;;